Decoded Metar for KMHL ( in ) (IATA:) | Meteo·Mobile Aviation Weather
aviador You're here:

KMHL Decoded Metar

in
Report Time2019-10-19 21:55:00
UTC Time2019-10-19 21:50:20
Flight Rules mvfr MVFR
Wind290° at 05 kt
W.Decomp.*RWY 27: 4.7 kt HW 1.7 kt RCW
RWY 36: 1.7 kt HW 4.7 kt LCW
Visibility9999 m
Phenomena:N/A
Clouds:Scattered 015 Hf
Broken 020 Hf
Broken 075 Hf
Expected CloudBase > 800 ft AGL from Temp-Dew spread
Ceiling2,000 ft
Temp14°C
Dew Point12°C (88% RH)
AAT12.8°C
QNH1009 hPa
Raw Report
KMHL 192155Z AUTO 29005KT 10SM SCT015 BKN020 BKN075 14/12 A2980
RMK AO2 TSNO PWINO=

Extra information for KMHL:More info

Social comments